• Join FlightAware (Why Join?)
  • Login
  • US Flag 
06:00AM EST


 

Airport Tracker/Info


-or-


 

Live Flight TrackerFlight Track Log ✈ CSN3931 ✈ 22-Apr-2013 ✈ ZGGG / CAN - ZUZY / ZYI

Flight Track Log - Related Links

Times and Time Zones

All times are in EDT time to prevent confusion due to time zone crossing. See the CSN3931 flight status page for this flight to view local times or setup timezone preferences in your user account.

Time Position Orientation Groundspeed Altitude Reporting Facility
EDT Latitude Longitude Course Direction KTS MPH feet Rate Location/Type
08:24PM 23.5366 113.0956 308° West  Level Estimated
08:25PM 23.6086 112.9938 308° West  Level Estimated
08:26PM 23.6805 112.8919 308° West  Level Estimated
08:27PM 23.7524 112.7899 308° West  Level Estimated
08:28PM 23.8242 112.6878 308° West  Level Estimated
08:29PM 23.8959 112.5856 308° West  Level Estimated
08:30PM 23.9675 112.4832 307° West  Level Estimated
08:31PM 24.0391 112.3808 307° West  Level Estimated
08:32PM 24.1106 112.2782 307° West  Level Estimated
08:33PM 24.1821 112.1755 307° West  Level Estimated
08:34PM 24.2535 112.0727 307° West  Level Estimated
08:35PM 24.3248 111.9698 307° West  Level Estimated
08:36PM 24.3960 111.8668 307° West  Level Estimated
08:37PM 24.4672 111.7637 307° West  Level Estimated
08:38PM 24.5383 111.6604 307° West  Level Estimated
08:39PM 24.6093 111.5570 307° West  Level Estimated
08:40PM 24.6803 111.4535 307° West  Level Estimated
08:41PM 24.7512 111.3499 307° West  Level Estimated
08:42PM 24.8220 111.2462 307° West  Level Estimated
08:43PM 24.8927 111.1423 307° West  Level Estimated
08:44PM 24.9634 111.0384 307° West  Level Estimated
08:45PM 25.0340 110.9343 307° West  Level Estimated
08:46PM 25.1046 110.8301 307° West  Level Estimated
08:47PM 25.1750 110.7258 307° West  Level Estimated
08:48PM 25.2454 110.6213 307° West  Level Estimated
08:49PM 25.3157 110.5167 307° West  Level Estimated
08:50PM 25.3860 110.4120 307° West  Level Estimated
08:51PM 25.4561 110.3072 307° West  Level Estimated
08:52PM 25.5262 110.2023 307° West  Level Estimated
08:53PM 25.5962 110.0972 306° West  Level Estimated
08:54PM 25.6661 109.9921 306° West  Level Estimated
08:55PM 25.7360 109.8868 306° West  Level Estimated
08:56PM 25.8058 109.7813 306° West  Level Estimated
08:57PM 25.8755 109.6758 306° West  Level Estimated
08:58PM 25.9452 109.5701 306° West  Level Estimated
08:59PM 26.0147 109.4643 306° West  Level Estimated
09:00PM 26.0842 109.3584 306° West  Level Estimated
09:01PM 26.1536 109.2523 306° West  Level Estimated
09:02PM 26.2229 109.1462 306° West  Level Estimated
09:03PM 26.2922 109.0399 306° West  Level Estimated
09:04PM 26.3613 108.9334 306° West  Level Estimated
09:05PM 26.4304 108.8269 306° West  Level Estimated
09:06PM 26.4994 108.7202 306° West  Level Estimated
09:07PM 26.5684 108.6134 306° West  Level Estimated
09:08PM 26.6372 108.5064 306° West  Level Estimated
09:09PM 26.7060 108.3994 306° West  Level Estimated
09:10PM 26.7747 108.2922 306° West  Level Estimated
09:11PM 26.8433 108.1848 306° West  Level Estimated
09:12PM 26.9118 108.0774 306° West  Level Estimated
09:13PM 26.9803 107.9698 306° West  Level Estimated
09:14PM 27.0486 107.8621 305° West  Level Estimated
09:15PM 27.1169 107.7542 305° West  Level Estimated
09:16PM 27.1851 107.6462 305° West  Level Estimated
09:17PM 27.2533 107.5381 305° West  Level Estimated
09:18PM 27.3213 107.4299 305° West  Level Estimated
09:19PM 27.3892 107.3215 305° West  Level Estimated
09:20PM 27.4571 107.2130 305° West  Level Estimated
09:21PM 27.5249 107.1043 305° West  Level Estimated
09:22PM 27.5900 106.9997 305° West  Level Estimated
09:23PM 27.5900 106.9997 90° East  Level Estimated
09:24PM 27.5900 106.9997 90° East  Level Estimated
09:25PM 27.5900 106.9997 90° East  Level Estimated
09:26PM 27.5900 106.9997 90° East  Level Estimated
09:27PM 27.5900 106.9997 90° East  Level Estimated
09:28PM 27.5900 106.9997 90° East  Level Estimated
09:29PM 27.5900 106.9997 90° East  Level Estimated
09:30PM 27.5900 106.9997 90° East  Level Estimated
09:31PM 27.5900 106.9997 90° East  Level Estimated
09:32PM 27.5900 106.9997 90° East  Level Estimated
09:33PM 27.5900 106.9997 90° East  Level Estimated
09:34PM 27.5900 106.9997 90° East  Level Estimated
09:35PM 27.5900 106.9997 90° East  Level Estimated
09:36PM 27.5900 106.9997 90° East  Level Estimated